createdAt,value
2022-12-20T00:02:30.207Z,100304.75
2022-12-20T00:05:36.703Z,100288.50
2022-12-20T00:08:39.354Z,100284.09
2022-12-20T00:11:41.421Z,100269.50
2022-12-20T00:14:43.016Z,100274.44
2022-12-20T00:17:44.500Z,100270.16
2022-12-20T00:20:46.414Z,100264.50
2022-12-20T00:23:48.076Z,100277.00
2022-12-20T00:26:50.160Z,100275.75
2022-12-20T00:29:51.833Z,100270.75
2022-12-20T00:32:53.318Z,100274.16
2022-12-20T00:35:57.806Z,100267.00
2022-12-20T00:39:01.340Z,100262.66
2022-12-20T00:42:02.888Z,100264.81
2022-12-20T00:45:04.746Z,100262.81
2022-12-20T00:48:06.411Z,100275.91
2022-12-20T00:51:13.335Z,100276.00
2022-12-20T00:54:14.845Z,100274.31
2022-12-20T00:57:16.338Z,100266.81
2022-12-20T01:00:18.786Z,100268.31
2022-12-20T01:03:21.865Z,100264.66
2022-12-20T01:06:25.165Z,100259.00
2022-12-20T01:09:26.688Z,100257.66
2022-12-20T01:12:28.158Z,100242.69
2022-12-20T01:15:29.633Z,100242.00
2022-12-20T01:18:31.562Z,100251.97
2022-12-20T01:21:33.427Z,100243.09
2022-12-20T01:24:34.939Z,100242.06
2022-12-20T01:27:36.359Z,100250.06
2022-12-20T01:30:40.714Z,100244.16
2022-12-20T01:33:42.950Z,100233.41
2022-12-20T01:36:44.719Z,100236.91
2022-12-20T01:39:46.197Z,100229.81
2022-12-20T01:42:47.615Z,100237.78
2022-12-20T01:45:49.450Z,100232.03
2022-12-20T01:48:58.573Z,100236.09
2022-12-20T01:52:11.967Z,100226.03
2022-12-20T01:55:20.075Z,100220.56
2022-12-20T01:58:22.067Z,100229.09
2022-12-20T02:01:25.312Z,100221.88
2022-12-20T02:04:26.947Z,100223.38
2022-12-20T02:07:30.824Z,100210.97
2022-12-20T02:11:11.050Z,100206.41
2022-12-20T02:14:27.611Z,100197.56
2022-12-20T02:17:51.998Z,100188.63
2022-12-20T02:21:19.472Z,100177.88
2022-12-20T02:24:33.646Z,100177.78
2022-12-20T02:27:45.764Z,100181.84
2022-12-20T02:30:52.213Z,100176.78
2022-12-20T02:33:57.724Z,100174.81
2022-12-20T02:36:59.265Z,100179.91
2022-12-20T02:40:02.600Z,100188.03
2022-12-20T02:43:26.826Z,100184.72
2022-12-20T02:46:29.555Z,100184.72
2022-12-20T02:49:33.811Z,100182.41
2022-12-20T02:52:36.315Z,100187.50
2022-12-20T02:55:47.738Z,100195.78
2022-12-20T02:58:55.229Z,100191.00
2022-12-20T03:01:57.766Z,100180.25
2022-12-20T03:05:00.675Z,100171.16
2022-12-20T03:08:02.458Z,100169.47
2022-12-20T03:11:04.042Z,100171.22
2022-12-20T03:14:06.984Z,100164.59
2022-12-20T03:17:09.344Z,100155.72
2022-12-20T03:20:13.391Z,100147.50
2022-12-20T03:23:14.925Z,100146.84
2022-12-20T03:26:16.403Z,100147.81
2022-12-20T03:29:23.643Z,100145.81
2022-12-20T03:32:25.127Z,100137.22
2022-12-20T03:35:26.636Z,100149.63
2022-12-20T03:38:28.256Z,100145.97
2022-12-20T03:41:29.698Z,100145.72
2022-12-20T03:44:31.698Z,100143.88
2022-12-20T03:47:33.727Z,100140.28
2022-12-20T03:50:37.140Z,100140.16
2022-12-20T03:53:38.668Z,100127.31
2022-12-20T03:56:40.183Z,100151.03
2022-12-20T03:59:41.856Z,100146.69
2022-12-20T04:02:46.547Z,100128.81
2022-12-20T04:05:48.380Z,100132.63
2022-12-20T04:08:50.084Z,100140.41
2022-12-20T04:11:59.018Z,100142.91
2022-12-20T04:15:01.950Z,100118.75
2022-12-20T04:18:04.450Z,100116.25
2022-12-20T04:21:07.220Z,100119.41
2022-12-20T04:24:11.684Z,100111.84
2022-12-20T04:27:18.794Z,100115.94
2022-12-20T04:30:21.036Z,100117.84
2022-12-20T04:33:23.635Z,100113.84
2022-12-20T04:36:25.631Z,100106.44
2022-12-20T04:39:29.337Z,100113.28
2022-12-20T04:42:57.173Z,100113.44
2022-12-20T04:45:59.325Z,100100.13
2022-12-20T04:49:01.277Z,100099.53
2022-12-20T04:52:24.469Z,100110.88
2022-12-20T04:55:26.041Z,100105.59
2022-12-20T04:58:28.186Z,100099.75
2022-12-20T05:01:29.901Z,100093.31
2022-12-20T05:04:37.088Z,100102.75
2022-12-20T05:07:39.993Z,100104.78
2022-12-20T05:10:42.494Z,100108.72
2022-12-20T05:13:44.077Z,100105.69
2022-12-20T05:16:46.040Z,100099.03
2022-12-20T05:19:47.777Z,100095.53
2022-12-20T05:23:09.483Z,100093.31
2022-12-20T05:26:17.507Z,100097.19
2022-12-20T05:29:19.364Z,100088.34
2022-12-20T05:32:21.067Z,100101.09
2022-12-20T05:35:23.114Z,100100.72
2022-12-20T05:38:30.876Z,100102.09
2022-12-20T05:41:33.649Z,100109.78
2022-12-20T05:44:35.966Z,100111.41
2022-12-20T05:47:38.919Z,100104.44
2022-12-20T05:50:45.801Z,100100.28
2022-12-20T05:53:59.198Z,100094.00
2022-12-20T05:57:15.990Z,100094.34
2022-12-20T06:00:17.716Z,100108.50
2022-12-20T06:03:23.778Z,100112.84
2022-12-20T06:06:25.868Z,100117.78
2022-12-20T06:09:28.144Z,100111.22
2022-12-20T06:12:36.226Z,100097.53
2022-12-20T06:15:38.564Z,100103.22
2022-12-20T06:18:40.497Z,100105.13
2022-12-20T06:21:42.669Z,100106.22
2022-12-20T06:24:48.813Z,100097.16
2022-12-20T06:27:53.491Z,100096.41
2022-12-20T06:30:56.331Z,100095.34
2022-12-20T06:34:17.884Z,100103.59
2022-12-20T06:37:19.543Z,100106.09
2022-12-20T06:40:22.090Z,100110.06
2022-12-20T06:43:23.505Z,100111.47
2022-12-20T06:46:25.142Z,100107.94
2022-12-20T06:49:27.014Z,100112.13
2022-12-20T06:52:28.759Z,100108.13
2022-12-20T06:55:30.226Z,100107.81
2022-12-20T06:58:31.977Z,100100.78
2022-12-20T07:01:33.561Z,100092.59
2022-12-20T07:04:34.992Z,100094.22
2022-12-20T07:07:42.926Z,100087.91
2022-12-20T07:10:46.602Z,100080.16
2022-12-20T07:13:48.432Z,100088.47
2022-12-20T07:16:50.257Z,100081.63
2022-12-20T07:19:51.850Z,100073.66
2022-12-20T07:22:53.460Z,100074.44
2022-12-20T07:25:56.443Z,100058.91
2022-12-20T07:28:58.069Z,100047.41
2022-12-20T07:31:59.540Z,100040.91
2022-12-20T07:35:01.458Z,100045.94
2022-12-20T07:38:03.089Z,100044.53
2022-12-20T07:41:09.280Z,100045.78
2022-12-20T07:44:11.829Z,100058.50
2022-12-20T07:47:13.443Z,100057.03
2022-12-20T07:50:15.077Z,100052.47
2022-12-20T07:53:17.913Z,100049.41
2022-12-20T07:56:22.099Z,100042.25
2022-12-20T07:59:29.987Z,100050.19
2022-12-20T08:02:37.144Z,100032.78
2022-12-20T08:05:43.341Z,100023.91
2022-12-20T08:08:49.226Z,100017.50
2022-12-20T08:11:51.669Z,100020.72
2022-12-20T08:14:56.063Z,100044.06
2022-12-20T08:17:57.697Z,100045.81
2022-12-20T08:20:59.151Z,100035.34
2022-12-20T08:24:00.646Z,100014.03
2022-12-20T08:27:02.192Z,100007.81
2022-12-20T08:30:04.795Z,100004.69
2022-12-20T08:33:06.356Z,99998.78
2022-12-20T08:36:11.529Z,100018.50
2022-12-20T08:39:13.031Z,100012.78
2022-12-20T08:42:14.760Z,100017.88
2022-12-20T08:45:16.633Z,100009.78
2022-12-20T08:48:18.118Z,99991.75
2022-12-20T08:51:19.680Z,99992.81
2022-12-20T08:54:21.251Z,99994.75
2022-12-20T08:57:22.737Z,99998.56
2022-12-20T09:00:24.383Z,99993.50
2022-12-20T09:03:26.747Z,99987.06
2022-12-20T09:06:28.265Z,99983.44
2022-12-20T09:09:29.737Z,99984.75
2022-12-20T09:12:31.211Z,99990.69
2022-12-20T09:15:34.637Z,99985.50
2022-12-20T09:18:36.276Z,100000.31
2022-12-20T09:21:37.792Z,100002.19
2022-12-20T09:24:39.881Z,100005.53
2022-12-20T09:27:41.450Z,100012.19
2022-12-20T09:30:43.085Z,100011.19
2022-12-20T09:33:45.263Z,100016.56
2022-12-20T09:36:46.810Z,100012.97
2022-12-20T09:39:51.523Z,100016.66
2022-12-20T09:42:53.240Z,100007.16
2022-12-20T09:45:58.440Z,100011.56
2022-12-20T09:49:00.111Z,100011.63
2022-12-20T09:52:07.587Z,100017.03
2022-12-20T09:55:19.657Z,100013.13
2022-12-20T09:58:40.244Z,100024.44
2022-12-20T10:01:50.400Z,100034.88
2022-12-20T10:04:53.676Z,100005.63
2022-12-20T10:08:06.364Z,100001.38
2022-12-20T10:11:13.773Z,100003.41
2022-12-20T10:14:46.261Z,100005.13
2022-12-20T10:18:17.085Z,99993.50
2022-12-20T10:21:34.233Z,99989.97
2022-12-20T10:24:36.862Z,99992.09
2022-12-20T10:27:42.522Z,99973.13
2022-12-20T10:30:44.211Z,99963.91
2022-12-20T10:33:46.399Z,99974.41
2022-12-20T10:36:51.167Z,99960.69
2022-12-20T10:39:52.901Z,99955.25
2022-12-20T10:42:55.504Z,99948.38
2022-12-20T10:46:08.660Z,99938.44
2022-12-20T10:49:30.958Z,99927.81
2022-12-20T10:52:32.577Z,99925.56
2022-12-20T10:55:37.979Z,99928.28
2022-12-20T10:58:39.671Z,99924.03
2022-12-20T11:01:44.820Z,99930.91
2022-12-20T11:05:06.088Z,99923.53
2022-12-20T11:08:36.178Z,99903.91
2022-12-20T11:11:38.850Z,99901.31
2022-12-20T11:14:43.001Z,99891.13
2022-12-20T11:17:51.360Z,99884.88
2022-12-20T11:21:27.927Z,99871.25
2022-12-20T11:24:55.112Z,99861.53
2022-12-20T11:28:10.432Z,99856.09
2022-12-20T11:31:45.143Z,99862.00
2022-12-20T11:35:05.955Z,99866.94
2022-12-20T11:38:23.053Z,99860.47
2022-12-20T11:41:44.081Z,99874.34
2022-12-20T11:45:09.342Z,99881.22
2022-12-20T11:48:33.119Z,99883.28
2022-12-20T11:51:46.696Z,99867.00
2022-12-20T11:54:56.827Z,99865.13
2022-12-20T11:58:21.760Z,99856.63
2022-12-20T12:01:33.813Z,99831.81
2022-12-20T12:04:41.835Z,99814.22
2022-12-20T12:07:47.618Z,99807.91
2022-12-20T12:11:02.502Z,99820.66
2022-12-20T12:14:05.819Z,99808.16
2022-12-20T12:17:17.864Z,99783.97
2022-12-20T12:20:45.337Z,99779.72
2022-12-20T12:24:08.225Z,99782.88
2022-12-20T12:27:21.479Z,99776.97
2022-12-20T12:30:23.411Z,99761.75
2022-12-20T12:33:38.684Z,99774.66
2022-12-20T12:37:18.017Z,99777.69
2022-12-20T12:40:41.041Z,99791.56
2022-12-20T12:43:53.210Z,99782.38
2022-12-20T12:47:05.322Z,99768.91
2022-12-20T12:50:16.897Z,99762.88
2022-12-20T12:53:23.716Z,99750.88
2022-12-20T12:56:43.912Z,99754.88
2022-12-20T12:59:48.815Z,99754.88
2022-12-20T13:02:51.908Z,99746.09
2022-12-20T13:05:53.589Z,99740.06
2022-12-20T13:08:57.965Z,99737.84
2022-12-20T13:12:03.337Z,99732.63
2022-12-20T13:15:22.533Z,99722.03
2022-12-20T13:18:25.631Z,99722.88
2022-12-20T13:21:37.219Z,99721.38
2022-12-20T13:24:59.168Z,99701.84
2022-12-20T13:28:18.769Z,99688.22
2022-12-20T13:31:31.496Z,99694.13
2022-12-20T13:34:52.348Z,99698.66
2022-12-20T13:38:11.603Z,99686.22
2022-12-20T13:41:41.374Z,99673.34
2022-12-20T13:44:45.557Z,99670.13
2022-12-20T13:47:52.304Z,99674.72
2022-12-20T13:50:56.409Z,99690.44
2022-12-20T13:54:04.059Z,99693.03
2022-12-20T13:57:07.360Z,99691.81
2022-12-20T14:00:18.046Z,99699.03
2022-12-20T14:03:25.646Z,99700.56
2022-12-20T14:06:27.634Z,99693.22
2022-12-20T14:09:33.876Z,99691.19
2022-12-20T14:12:37.099Z,99693.00
2022-12-20T14:15:38.723Z,99694.94
2022-12-20T14:18:40.737Z,99687.00
2022-12-20T14:21:44.770Z,99689.06
2022-12-20T14:24:46.583Z,99680.94
2022-12-20T14:27:48.758Z,99675.66
2022-12-20T14:30:50.362Z,99676.81
2022-12-20T14:34:00.810Z,99670.72
2022-12-20T14:37:28.577Z,99682.53
2022-12-20T14:40:53.607Z,99682.16
2022-12-20T14:43:56.849Z,99692.75
2022-12-20T14:47:05.326Z,99681.75
2022-12-20T14:50:18.639Z,99696.47
2022-12-20T14:53:25.063Z,99694.41
2022-12-20T14:56:32.230Z,99684.66
2022-12-20T14:59:34.067Z,99695.53
2022-12-20T15:03:01.002Z,99689.91
2022-12-20T15:06:03.606Z,99694.19
2022-12-20T15:09:05.571Z,99700.91
2022-12-20T15:12:08.362Z,99696.66
2022-12-20T15:15:28.787Z,99701.88
2022-12-20T15:18:31.000Z,99704.06
2022-12-20T15:21:38.356Z,99704.31
2022-12-20T15:24:40.269Z,99705.69
2022-12-20T15:27:42.031Z,99700.03
2022-12-20T15:30:44.334Z,99697.72
2022-12-20T15:33:46.981Z,99715.00
2022-12-20T15:36:48.473Z,99707.31
2022-12-20T15:39:49.965Z,99714.44
2022-12-20T15:42:51.576Z,99708.44
2022-12-20T15:45:53.941Z,99702.50
2022-12-20T15:48:55.278Z,99704.53
2022-12-20T15:51:57.229Z,99706.72
2022-12-20T15:54:58.731Z,99711.34
2022-12-20T15:58:00.167Z,99711.94
2022-12-20T16:01:03.410Z,99704.25
2022-12-20T16:04:06.191Z,99707.16
2022-12-20T16:07:12.620Z,99704.69
2022-12-20T16:10:15.216Z,99687.66
2022-12-20T16:13:23.208Z,99685.56
2022-12-20T16:16:27.739Z,99679.91
2022-12-20T16:19:29.321Z,99687.53
2022-12-20T16:22:31.637Z,99680.28
2022-12-20T16:25:35.630Z,99667.00
2022-12-20T16:28:37.166Z,99672.47
2022-12-20T16:31:40.377Z,99662.03
2022-12-20T16:34:42.221Z,99656.28
2022-12-20T16:37:43.757Z,99651.22
2022-12-20T16:40:45.639Z,99641.19
2022-12-20T16:43:48.744Z,99636.91
2022-12-20T16:46:50.333Z,99632.91
2022-12-20T16:49:53.747Z,99623.56
2022-12-20T16:52:55.516Z,99619.59
2022-12-20T16:55:57.020Z,99631.09
2022-12-20T16:59:18.700Z,99622.81
2022-12-20T17:02:32.750Z,99640.16
2022-12-20T17:05:36.853Z,99637.63
2022-12-20T17:11:58.595Z,99638.75
2022-12-20T17:15:00.115Z,99636.25
2022-12-20T17:18:01.625Z,99636.16
2022-12-20T17:21:12.891Z,99636.72
2022-12-20T17:24:20.028Z,99637.56
2022-12-20T17:27:21.574Z,99635.66
2022-12-20T17:30:25.500Z,99641.56
2022-12-20T17:33:27.050Z,99648.72
2022-12-20T17:36:33.054Z,99643.66
2022-12-20T17:39:39.078Z,99644.59
2022-12-20T17:42:42.027Z,99637.88
2022-12-20T17:45:43.615Z,99631.84
2022-12-20T17:48:49.175Z,99633.19
2022-12-20T17:51:51.540Z,99640.63
2022-12-20T17:54:52.903Z,99645.31
2022-12-20T17:57:55.279Z,99650.25
2022-12-20T18:00:56.759Z,99650.66
2022-12-20T18:04:03.949Z,99652.16
2022-12-20T18:07:05.926Z,99658.75
2022-12-20T18:10:08.233Z,99647.75
2022-12-20T18:13:10.078Z,99654.59
2022-12-20T18:16:12.908Z,99652.41
2022-12-20T18:19:19.167Z,99656.81
2022-12-20T18:22:20.681Z,99664.09
2022-12-20T18:25:22.185Z,99656.09
2022-12-20T18:28:23.685Z,99661.34
2022-12-20T18:31:27.553Z,99669.72
2022-12-20T18:34:29.081Z,99659.84
2022-12-20T18:37:30.557Z,99651.59
2022-12-20T18:40:31.995Z,99652.28
2022-12-20T18:43:35.100Z,99640.91
2022-12-20T18:46:36.747Z,99636.38
2022-12-20T18:49:38.249Z,99643.38
2022-12-20T18:52:41.187Z,99644.88
2022-12-20T18:55:44.679Z,99644.47
2022-12-20T18:58:50.084Z,99627.44
2022-12-20T19:01:52.644Z,99630.47
2022-12-20T19:04:54.477Z,99626.63
2022-12-20T19:07:56.036Z,99633.91
2022-12-20T19:10:59.595Z,99626.47
2022-12-20T19:14:01.100Z,99624.44
2022-12-20T19:17:02.606Z,99622.38
2022-12-20T19:20:05.087Z,99618.09
2022-12-20T19:23:08.072Z,99626.31
2022-12-20T19:26:12.183Z,99640.00
2022-12-20T19:29:13.686Z,99637.66
2022-12-20T19:32:15.491Z,99643.81
2022-12-20T19:35:53.595Z,99656.16
2022-12-20T19:38:43.654Z,99655.41
2022-12-20T19:41:55.042Z,99656.91
2022-12-20T19:45:07.034Z,99671.22
2022-12-20T19:48:08.640Z,99667.34
2022-12-20T19:51:13.736Z,99670.38
2022-12-20T19:54:15.260Z,99672.63
2022-12-20T19:57:16.758Z,99674.53
2022-12-20T20:00:18.518Z,99673.72
2022-12-20T20:03:21.444Z,99663.00
2022-12-20T20:06:24.186Z,99658.59
2022-12-20T20:09:25.853Z,99657.53
2022-12-20T20:12:27.289Z,99669.59
2022-12-20T20:15:28.910Z,99674.53
2022-12-20T20:18:33.768Z,99676.56
2022-12-20T20:21:36.612Z,99681.13
2022-12-20T20:24:38.337Z,99680.44
2022-12-20T20:27:39.900Z,99690.31
2022-12-20T20:30:43.232Z,99688.69
2022-12-20T20:33:44.806Z,99687.56
2022-12-20T20:36:46.234Z,99687.84
2022-12-20T20:39:47.809Z,99694.84
2022-12-20T20:42:51.587Z,99703.75
2022-12-20T20:45:53.190Z,99692.78
2022-12-20T20:48:54.747Z,99692.47
2022-12-20T20:51:56.267Z,99689.34
2022-12-20T20:54:57.687Z,99684.50
2022-12-20T20:57:59.290Z,99686.19
2022-12-20T21:01:03.249Z,99688.53
2022-12-20T21:04:05.359Z,99690.72
2022-12-20T21:07:07.051Z,99690.03
2022-12-20T21:10:09.339Z,99676.16
2022-12-20T21:13:12.002Z,99673.69
2022-12-20T21:16:22.217Z,99665.88
2022-12-20T21:19:24.023Z,99671.09
2022-12-20T21:22:25.578Z,99667.94
2022-12-20T21:25:27.106Z,99668.78
2022-12-20T21:28:28.618Z,99673.03
2022-12-20T21:31:30.874Z,99674.81
2022-12-20T21:34:32.538Z,99670.00
2022-12-20T21:37:34.102Z,99663.41
2022-12-20T21:40:35.576Z,99661.22
2022-12-20T21:43:37.132Z,99657.09
2022-12-20T21:46:38.611Z,99662.47
2022-12-20T21:49:40.318Z,99655.19
2022-12-20T21:52:44.797Z,99662.84
2022-12-20T21:55:46.205Z,99659.69
2022-12-20T21:58:48.338Z,99656.78
2022-12-20T22:01:50.131Z,99650.88
2022-12-20T22:04:51.819Z,99645.13
2022-12-20T22:07:53.229Z,99647.63
2022-12-20T22:11:06.942Z,99643.34
2022-12-20T22:14:12.089Z,99649.00
2022-12-20T22:17:13.591Z,99656.78
2022-12-20T22:20:15.100Z,99666.66
2022-12-20T22:23:17.276Z,99667.06
2022-12-20T22:26:21.189Z,99674.78
2022-12-20T22:29:22.716Z,99681.06
2022-12-20T22:32:24.211Z,99673.94
2022-12-20T22:35:25.655Z,99666.28
2022-12-20T22:38:27.368Z,99657.38
2022-12-20T22:41:31.240Z,99665.75
2022-12-20T22:44:32.774Z,99658.31
2022-12-20T22:47:34.833Z,99657.94
2022-12-20T22:50:36.356Z,99656.94
2022-12-20T22:53:38.160Z,99653.19
2022-12-20T22:56:39.618Z,99656.91
2022-12-20T22:59:41.286Z,99655.81
2022-12-20T23:02:42.898Z,99653.00
2022-12-20T23:05:56.357Z,99648.88
2022-12-20T23:08:57.883Z,99650.41
2022-12-20T23:12:18.256Z,99653.78
2022-12-20T23:15:38.663Z,99656.13
2022-12-20T23:18:40.275Z,99651.94
2022-12-20T23:22:00.574Z,99658.91
2022-12-20T23:25:02.217Z,99660.34
2022-12-20T23:28:03.729Z,99663.63
2022-12-20T23:31:06.259Z,99665.84
2022-12-20T23:34:08.039Z,99671.47
2022-12-20T23:37:09.559Z,99682.81
2022-12-20T23:40:12.160Z,99676.16
2022-12-20T23:43:13.686Z,99684.16
2022-12-20T23:46:17.087Z,99689.19
2022-12-20T23:49:18.565Z,99679.91
2022-12-20T23:52:19.998Z,99677.44
2022-12-20T23:55:21.489Z,99680.09
2022-12-20T23:58:22.899Z,99671.97
